Terminal Aerodrome Forecast
Issued by NWS Los Angeles, CA

Home | Current Version | Previous Version | Text Only | Print | Product List | Glossary On
Versions: 1 2 3 4 5 6 7 8 9 10 11 12 13 14 15 16 17 18 19 20
000
FTUS46 KLOX 291729
TAFSMX
TAF
KSMX 291729Z 2918/3018 00000KT P6SM SCT004
     FM291900 31010KT P6SM SKC
     FM292100 30015G23KT P6SM SKC
     FM300200 30010KT 5SM BR BKN007
     FM300600 VRB03KT 3SM BR OVC003
     FM301000 VRB03KT 1/2SM FG VV001=

USA.gov is the U.S. government's official web portal to all federal, state and local government web resources and services.